Orsola Bottiglieri — ICQN — position and weather

sailwx.info

Track history (hours):
 
Tides and Currents Weather Stations Pressure Air Temp Water Temp Dewpoint Dewpoint Depression Visibility Wind Speed Wind Dir Waves Ship Positions

Orsola Bottiglieri

Last reported at 2017-Feb-20 12:08 UTC. Time now 2017-Feb-28 03:25 UTC.
Position N 01°19' E 103°20'.

Length 292 m; draft 10.3 m.

Type: Cargo ship. MMSI: 247304400.

Date/timePositionNaut miles runAvg speedWind from/ knotsBaromVisibWave heightAir tempDewpointWater temp
2017-Feb-20 12:08N 01°19' E 103°20'711.3
2017-Feb-20 11:30N 01°14' E 103°26'1010.8
2017-Feb-20 10:33N 01°12' E 103°36'1010.4
2017-Feb-20 09:33N 01°09' E 103°46'1111.4
2017-Feb-20 08:33N 01°14' E 103°56'  
2017-Feb-11 04:32N 31°05' E 122°29'4 4.5
2017-Feb-11 03:33N 31°05' E 122°24'1 0.5
2017-Feb-11 02:27N 31°05' E 122°23'0 0.1
2017-Feb-11 01:15N 31°05' E 122°23'0 0.1
2017-Feb-11 00:21N 31°05' E 122°23'0 0.2
2017-Feb-10 23:32N 31°05' E 122°23'9 8.9
2017-Feb-10 22:33N 31°09' E 122°14'1414.2
2017-Feb-10 21:33N 31°15' E 121°59'1414.3
2017-Feb-10 20:33N 31°19' E 121°43'1211.9
2017-Feb-10 19:33N 31°25' E 121°31'8 7.6
2017-Feb-10 18:28N 31°30' E 121°23'0 0.0
2017-Feb-10 17:31N 31°30' E 121°23'0 0.0
2017-Feb-10 16:31N 31°30' E 121°23'0 0.0
2017-Feb-10 15:28N 31°30' E 121°23'0 0.0
2017-Feb-10 14:31N 31°30' E 121°23'0 0.0
2017-Feb-10 13:31N 31°30' E 121°23'0 0.0
2017-Feb-10 12:31N 31°30' E 121°23'  
Track history (hours):
 
Tides and Currents Weather Stations Pressure Air Temp Water Temp Dewpoint Dewpoint Depression Visibility Wind Speed Wind Dir Waves Ship Positions

Orsola Bottiglieri

Last reported at 2017-Feb-20 12:08 UTC. Time now 2017-Feb-28 03:25 UTC.
Position N 01°19' E 103°20'.

Length 292 m; draft 10.3 m.

Type: Cargo ship. MMSI: 247304400.

Date/timePositionNaut miles runAvg speedWind from/ knotsBaromVisibWave heightAir tempDewpointWater temp
2017-Feb-20 12:08N 01°19' E 103°20'711.3
2017-Feb-20 11:30N 01°14' E 103°26'1010.8
2017-Feb-20 10:33N 01°12' E 103°36'1010.4
2017-Feb-20 09:33N 01°09' E 103°46'1111.4
2017-Feb-20 08:33N 01°14' E 103°56'  
2017-Feb-11 04:32N 31°05' E 122°29'4 4.5
2017-Feb-11 03:33N 31°05' E 122°24'1 0.5
2017-Feb-11 02:27N 31°05' E 122°23'0 0.1
2017-Feb-11 01:15N 31°05' E 122°23'0 0.1
2017-Feb-11 00:21N 31°05' E 122°23'0 0.2
2017-Feb-10 23:32N 31°05' E 122°23'9 8.9
2017-Feb-10 22:33N 31°09' E 122°14'1414.2
2017-Feb-10 21:33N 31°15' E 121°59'1414.3
2017-Feb-10 20:33N 31°19' E 121°43'1211.9
2017-Feb-10 19:33N 31°25' E 121°31'8 7.6
2017-Feb-10 18:28N 31°30' E 121°23'0 0.0
2017-Feb-10 17:31N 31°30' E 121°23'0 0.0
2017-Feb-10 16:31N 31°30' E 121°23'0 0.0
2017-Feb-10 15:28N 31°30' E 121°23'0 0.0
2017-Feb-10 14:31N 31°30' E 121°23'0 0.0
2017-Feb-10 13:31N 31°30' E 121°23'0 0.0
2017-Feb-10 12:31N 31°30' E 121°23'  

Dump ship's entire track history